Kemptville, Canada
Current Conditions -  °F | °C
As of 9:00 PM on Sunday 21 Dec 2014 (Local Time) from CYOW Reporting Station
Haze Haze  
Wind Chill: -9°   Ceiling: 600
Heat Index: -9°   Visibility: 3mi
Dew Point: -10°   Wind: 3mph
Humidity: 93%   Direction: 100°E
Pressure: 30.39"   Gusts: NA
Location:  45.02°N, 75.65°W
Report Text: CYOW 220200Z 10003KT 3SM BR BKN006 OVC012 M09/M10 A3039 RMK FG1ST6SC1 SLP300
Loading
Personal Weather Stations






























Interactive Weather Map New forecast layout! Learn more

10-Day Weather Forecast

Advertisements
Track Severe Weather on mobile